WEATHER DATA

YESTERDAY
Time Temp. Dewp. Hum. Wind dir Wind speed Wind gust Bar. 1h Prec. 24h Prec.
00:01 7 1.1 66 219 0.3 0.6 1024.4 0.0000 0.0000
00:11 6.8 1.1 67 215 0.3 0.6 1024.5 0.0000 0.0000
00:21 6.6 1.1 68 209 0.3 0.6 1024.6 0.0000 0.0000
00:31 6.4 1.1 69 230 0.3 0.6 1024.6 0.0000 0.0000
00:41 6.2 0.9 69 225 0.3 0.6 1024.6 0.0000 0.0000
00:51 6 1 70 225 0.3 0.6 1024.6 0.0000 0.0000
01:01 5.9 0.9 70 149 0.3 0.8 1024.6 0.0000 0.0000
01:11 5.8 0.8 70 150 0.3 0.8 1024.7 0.0000 0.0000
01:21 5.6 0.8 71 198 0.3 0.6 1024.7 0.0000 0.0000
01:31 5.5 0.7 71 225 0.3 0.6 1024.8 0.0000 0.0000
01:41 5.4 0.8 72 210 0.3 0.6 1024.8 0.0000 0.0000
01:51 5.2 0.6 72 171 0.3 0.8 1024.9 0.0000 0.0000
02:02 5.1 0.5 72 186 0.3 0.8 1024.8 0.0000 0.0000
02:11 5 0.6 73 225 0.3 0.6 1024.8 0.0000 0.0000
02:21 4.8 0.4 73 225 0.3 0.6 1024.7 0.0000 0.0000
02:32 4.7 0.5 74 230 0.3 0.6 1024.7 0.0000 0.0000
02:41 4.6 0.6 75 229 0.3 0.8 1024.6 0.0000 0.0000
02:51 4.5 0.5 75 270 0.3 0.6 1024.5 0.0000 0.0000
03:01 4.4 0.4 75 213 0.3 0.6 1024.4 0.0000 0.0000
03:12 4.2 0.4 76 225 0.3 0.6 1024.4 0.0000 0.0000
03:21 4.1 0.3 76 191 0.3 0.6 1024.3 0.0000 0.0000
03:31 4 0.2 76 206 0.3 0.6 1024.3 0.0000 0.0000
03:42 3.8 0.1 77 135 0.3 0.8 1024.2 0.0000 0.0000
03:52 3.7 0 77 225 0.3 0.6 1024.2 0.0000 0.0000
04:01 3.7 0.2 78 225 0.3 0.6 1024.2 0.0000 0.0000
04:12 3.6 0.1 78 225 0.3 0.6 1024.1 0.0000 0.0000
04:22 3.5 0 78 225 0.3 0.6 1024.5 0.0000 0.0000
04:31 3.4 -0.1 78 225 0.3 0.6 1024.4 0.0000 0.0000
04:41 3.3 0 79 225 0.3 0.8 1024.2 0.0000 0.0000
04:52 3.1 -0.2 79 220 0.3 0.6 1024.3 0.0000 0.0000
05:02 3.1 0 80 165 0.3 0.6 1024.5 0.0000 0.0000
05:11 2.9 -0.2 80 225 0.3 0.8 1024.5 0.0000 0.0000
05:21 2.8 -0.3 80 220 0.3 0.6 1024.5 0.0000 0.0000
05:31 2.7 -0.4 80 184 0.3 0.8 1024.5 0.0000 0.0000
05:41 2.6 -0.4 80 225 0.3 0.6 1024.5 0.0000 0.0000
05:51 2.6 -0.4 80 220 0.3 0.6 1024.4 0.0000 0.0000
06:01 2.4 -0.5 81 225 0.3 0.8 1024.7 0.0000 0.0000
06:11 2.4 -0.3 82 206 0.3 0.8 1024.6 0.0000 0.0000
06:21 2.3 -0.4 82 206 0.3 0.6 1024.7 0.0000 0.0000
06:31 2.3 -0.4 82 208 0.3 0.8 1024.8 0.0000 0.0000
06:41 2.2 -0.5 82 232 0.3 0.8 1024.9 0.0000 0.0000
06:51 2.1 -0.6 82 232 0.3 0.8 1025 0.0000 0.0000
07:02 2 -0.5 83 233 0.3 0.6 1025.2 0.0000 0.0000
07:11 2 -0.5 83 237 0.3 0.8 1025.3 0.0000 0.0000
07:21 2 -0.5 83 228 0.3 1.1 1025.3 0.0000 0.0000
07:31 2 -0.4 84 232 0.3 0.8 1025.4 0.0000 0.0000
07:41 2 -0.2 85 212 0.3 0.6 1025.5 0.0000 0.0000
07:51 2.1 -0.1 85 234 0.3 0.6 1025.5 0.0000 0.0000
08:01 2.3 0 85 220 0.3 0.6 1025.5 0.0000 0.0000
08:12 2.5 0.4 86 219 0.3 0.6 1025.4 0.0000 0.0000
08:21 2.7 0.6 86 230 0.3 0.6 1025.7 0.0000 0.0000
08:31 3.1 1 86 208 0.3 0.8 1025.7 0.0000 0.0000
08:42 3.5 1.4 86 225 0.3 0.6 1025.8 0.0000 0.0000
08:52 4.3 1.8 84 220 0.6 1.7 1025.6 0.0000 0.0000
09:01 5.5 2.3 80 209 0.6 1.9 1025.7 0.0000 0.0000
09:11 6.7 2.6 75 205 0.8 1.9 1025.7 0.0000 0.0000
09:22 7.6 2.7 71 212 0.8 2.5 1025.7 0.0000 0.0000
09:31 8.3 3 69 205 0.8 3.9 1025.6 0.0000 0.0000
09:41 9 3.2 67 206 0.8 3.1 1025.6 0.0000 0.0000
09:52 9.6 3.1 64 207 0.8 3.1 1025.6 0.0000 0.0000
10:02 10 3.1 62 205 0.8 2.2 1025.6 0.0000 0.0000
10:11 10.4 3.2 61 203 0.8 3.9 1025.5 0.0000 0.0000
10:21 10.7 3 59 207 1.4 3.6 1025.5 0.0000 0.0000
10:32 11.1 3.4 59 214 0.8 2.5 1025.4 0.0000 0.0000
10:42 11.4 3.4 58 208 1.1 3.6 1025.4 0.0000 0.0000
10:51 11.7 3.2 56 212 1.4 3.3 1025.3 0.0000 0.0000
11:02 12.2 3.4 55 208 1.1 5.3 1025.3 0.0000 0.0000
11:12 12.6 3.5 54 213 1.1 3.9 1025.2 0.0000 0.0000
11:22 13 3.4 52 212 0.8 3.1 1025 0.0000 0.0000
11:32 13.4 3.5 51 205 1.4 3.6 1024.9 0.0000 0.0000
11:42 13.8 3.6 50 217 0.8 3.3 1024.7 0.0000 0.0000
11:52 14.3 3.4 48 216 0.8 3.9 1024.6 0.0000 0.0000
12:02 14.5 3.9 49 208 1.1 3.1 1024.5 0.0000 0.0000
12:12 14.7 3.8 48 210 1.1 3.3 1024.5 0.0000 0.0000
12:22 15.1 3.9 47 225 0.8 4.2 1024.4 0.0000 0.0000
12:32 15.4 3.9 46 203 0.8 3.1 1024.2 0.0000 0.0000
12:42 15.6 4 46 188 0.8 2.2 1024.1 0.0000 0.0000
12:52 15.9 4 45 206 1.1 5.3 1023.9 0.0000 0.0000
13:02 16 3.4 43 199 1.1 4.4 1023.7 0.0000 0.0000
13:12 16.3 4 44 0 0.8 3.1 1023.5 0.0000 0.0000
13:22 16.5 3.9 43 63 0.8 3.1 1023.6 0.0000 0.0000
13:32 16.6 4 43 204 1.4 6.1 1023.4 0.0000 0.0000
13:42 16.7 4.1 43 215 0.8 4.4 1023.4 0.0000 0.0000
13:53 17.1 4.1 42 210 0.8 3.1 1023.3 0.0000 0.0000
14:02 17 4 42 209 1.4 4.4 1023.1 0.0000 0.0000
14:12 17.1 3.8 41 207 1.4 4.2 1023 0.0000 0.0000
14:22 17.4 4.4 42 225 0.8 2.5 1022.9 0.0000 0.0000
14:33 17.8 4.4 41 215 0.8 4.4 1022.9 0.0000 0.0000
14:42 17.8 4.4 41 228 1.1 4.4 1022.5 0.0000 0.0000
14:52 17.9 4.1 40 235 0.8 2.2 1022.6 0.0000 0.0000
15:03 18.1 4.7 41 218 1.1 3.6 1022.6 0.0000 0.0000
15:12 18.1 4.3 40 215 1.4 4.7 1022.3 0.0000 0.0000
15:22 18.4 4.2 39 220 0.8 3.1 1022.1 0.0000 0.0000
15:32 18.5 4.3 39 220 0.6 2.5 1022 0.0000 0.0000
15:43 18.5 3.9 38 218 1.7 5.3 1021.9 0.0000 0.0000
15:52 18.7 4.1 38 211 0.8 3.1 1021.8 0.0000 0.0000
16:02 18.8 3.8 37 210 0.8 3.3 1021.7 0.0000 0.0000
16:13 18.9 3.9 37 225 0.8 2.2 1021.5 0.0000 0.0000
16:23 18.8 3.4 36 216 1.1 3.6 1021.4 0.0000 0.0000
16:32 18.7 3.7 37 222 0.8 2.2 1021.2 0.0000 0.0000
16:43 18.7 3.7 37 45 0.8 3.1 1021.1 0.0000 0.0000
16:53 18.8 3.4 36 16 0.6 2.5 1021 0.0000 0.0000
17:02 18.7 3.3 36 212 0.6 1.7 1020.9 0.0000 0.0000
17:12 18.7 3.7 37 220 0.6 1.9 1020.8 0.0000 0.0000
17:23 18.7 3.7 37 45 0.8 1.9 1020.8 0.0000 0.0000
17:34 18.5 3.2 36 213 0.8 5 1020.6 0.0000 0.0000
17:44 18.4 3.5 37 220 0.6 1.7 1020.4 0.0000 0.0000
17:54 18.4 3.5 37 217 0.8 3.6 1020.4 0.0000 0.0000
18:05 18.3 3.4 37 208 0.8 3.6 1020.2 0.0000 0.0000
18:14 18.3 3.4 37 171 0.6 2.2 1020.2 0.0000 0.0000
18:24 18.2 3.3 37 209 0.8 3.6 1020.3 0.0000 0.0000
18:34 18.1 3.6 38 220 0.6 1.7 1020 0.0000 0.0000
18:45 18 3.5 38 220 0.8 3.9 1020.2 0.0000 0.0000
18:54 17.9 3.4 38 225 0.6 1.7 1020.2 0.0000 0.0000
19:15 17.6 3.5 39 235 0.6 1.4 1020.1 0.0000 0.0000
19:24 17.5 3.4 39 231 0.6 1.4 1020 0.0000 0.0000
19:34 17.2 3.1 39 239 0.6 1.7 1020 0.0000 0.0000
19:45 17 3.3 40 225 0.6 1.4 1020.1 0.0000 0.0000
19:55 16.7 3 40 229 0.6 1.7 1020.1 0.0000 0.0000
20:04 16.5 3.2 41 270 0.6 1.4 1020 0.0000 0.0000
20:14 16.2 2.9 41 225 0.6 1.7 1020.3 0.0000 0.0000
20:25 16 3.1 42 239 0.6 1.1 1020.2 0.0000 0.0000
20:35 15.7 2.8 42 236 0.6 1.4 1020.3 0.0000 0.0000
20:44 15.3 2.5 42 270 0.3 0.8 1020.3 0.0000 0.0000
20:55 15 2.9 44 270 0.3 0.8 1020.3 0.0000 0.0000
21:05 14.6 2.5 44 235 0.6 1.1 1020.3 0.0000 0.0000
21:15 14.3 2.8 46 270 0.3 0.8 1020.4 0.0000 0.0000
21:24 14 2.6 46 232 0.6 0.8 1020.5 0.0000 0.0000
21:35 13.8 2.7 47 302 0.3 0.8 1020.4 0.0000 0.0000
21:45 13.5 3 49 348 0.3 0.8 1020.3 0.0000 0.0000
21:55 12.9 2.7 50 315 0.3 0.8 1020.3 0.0000 0.0000
22:05 12.3 2.7 52 270 0.3 0.8 1020.3 0.0000 0.0000
22:15 11.8 2.5 53 225 0.3 0.6 1020.1 0.0000 0.0000
22:25 11.3 2.6 55 270 0.3 0.8 1020.1 0.0000 0.0000
22:35 10.9 2.2 55 270 0.3 0.6 1019.9 0.0000 0.0000
22:45 10.5 2.1 56 225 0.3 0.6 1020 0.0000 0.0000
22:55 10.2 2.1 57 270 0.3 0.8 1020 0.0000 0.0000
23:05 10 1.9 57 270 0.3 0.8 1019.8 0.0000 0.0000
23:16 9.7 1.8 58 233 0.3 0.6 1020.1 0.0000 0.0000
23:25 9.5 1.9 59 270 0.3 0.6 1020 0.0000 0.0000
23:35 9.3 1.9 60 270 0.3 0.8 1020.1 0.0000 0.0000
23:45 9.1 1.8 60 233 0.3 0.6 1020.1 0.0000 0.0000
23:56 8.9 1.8 61 240 0.3 0.8 1020.1 0.0000

DAY STATISTIC

2020-04-05
TEMPERATURE
AVERAGE
10.7
HIGH
18.9
16:13
LOW
2.0
07:02
PRESSURE
AVERAGE
1023.1
HIGH
1025.8
08:42
LOW
1019.8
23:05
DEWPOINT
AVERAGE
2.1
HIGH
4.7
15:03
LOW
-0.6
06:51
HUMIDITY
AVERAGE
59
HIGH
86
08:12
LOW
36
16:23
WIND SPEED
AVERAGE
0.6
HIGH
1.7
15:43
WIND GUST
AVERAGE
1.8
HIGH
6.1
13:32
WIND DIRECTION
PREVAILING
SW
75.5%
N
2.1
NE
2.1
E
0.0
SE
2.1
S
8.4
SW
75.5
W
8.4
NW
1.4
PRECIPITATION
RAIN HOUR
0.0
RAIN DAY
0.0
TEMPERATURE (°C)
LOW
2.0
HIGH
18.9
AVERAGE
10.7
PRESSURE (hpa)
LOW
1019.8
HIGH
1025.8
AVERAGE
1023.1
DEVICE